Time;durP1;ratioP1;P1;durP2;ratioP2;P2;SDS_P1;SDS_P2;PMS_P1;PMS_P2;Temp;Humidity;BMP_temperature;BMP_pressure;BME280_temperature;BME280_humidity;BME280_pressure;Samples;Min_cycle;Max_cycle;Signal;HPM_P1;HPM_P2
2023/08/25 00:01:29;;;;;;;8.93;6.07;;;21.10;99.90;;;;;;5077094;28;20643;-71
2023/08/25 00:04:18;;;;;;;10.95;6.53;;;21.00;99.90;;;;;;5079087;28;20242;-69
2023/08/25 00:07:07;;;;;;;13.80;6.80;;;21.00;99.90;;;;;;5077635;28;20215;-71
2023/08/25 00:09:58;;;;;;;11.23;6.72;;;20.90;99.90;;;;;;5075099;28;20750;-71
2023/08/25 00:12:47;;;;;;;16.38;7.30;;;20.80;99.90;;;;;;5075011;28;20340;-71
2023/08/25 00:15:36;;;;;;;10.13;6.65;;;20.70;99.90;;;;;;5080236;28;20238;-69
2023/08/25 00:18:27;;;;;;;12.75;6.70;;;20.80;99.90;;;;;;5100537;28;20253;-69
2023/08/25 00:21:16;;;;;;;12.05;6.55;;;20.80;99.90;;;;;;5094279;28;20261;-70
2023/08/25 00:24:05;;;;;;;14.45;7.30;;;20.90;99.90;;;;;;5074226;28;20231;-70
2023/08/25 00:26:55;;;;;;;9.43;6.60;;;20.90;99.90;;;;;;5086736;28;20223;-68
2023/08/25 00:29:44;;;;;;;11.00;7.13;;;20.80;99.90;;;;;;5093597;28;20222;-66
2023/08/25 00:32:33;;;;;;;9.68;6.60;;;20.80;99.90;;;;;;5053917;28;20368;-69
2023/08/25 00:35:23;;;;;;;10.63;7.07;;;20.80;99.90;;;;;;5078751;28;20691;-70
2023/08/25 00:38:12;;;;;;;12.10;6.90;;;20.70;99.90;;;;;;5084724;28;20424;-68
2023/08/25 00:41:01;;;;;;;9.30;6.65;;;20.70;99.90;;;;;;5095252;28;20231;-68
2023/08/25 00:43:51;;;;;;;9.95;6.75;;;20.60;99.90;;;;;;5080511;28;20214;-68
2023/08/25 00:46:41;;;;;;;9.50;6.57;;;20.50;99.90;;;;;;5085369;28;20262;-69
2023/08/25 00:49:31;;;;;;;8.88;6.53;;;20.50;99.90;;;;;;5078426;28;20310;-70
2023/08/25 00:52:22;;;;;;;12.25;7.07;;;20.50;99.90;;;;;;5087168;28;20218;-69
2023/08/25 00:55:11;;;;;;;8.85;6.65;;;20.30;99.90;;;;;;5093188;28;20223;-69
2023/08/25 00:58:01;;;;;;;9.43;6.47;;;20.20;99.90;;;;;;5099218;28;20357;-68
2023/08/25 01:00:54;;;;;;;9.38;6.70;;;20.30;99.90;;;;;;5082094;28;20211;-71
2023/08/25 01:03:44;;;;;;;12.88;7.30;;;20.40;99.90;;;;;;5080202;28;20585;-70
2023/08/25 01:06:32;;;;;;;9.23;7.00;;;20.40;99.90;;;;;;5084941;28;20670;-69
2023/08/25 01:09:22;;;;;;;11.10;6.82;;;20.40;99.90;;;;;;5076210;28;20219;-69
2023/08/25 01:12:17;;;;;;;8.77;7.38;;;20.50;99.90;;;;;;5096411;28;20773;-70
2023/08/25 01:15:13;;;;;;;12.90;7.60;;;20.40;99.90;;;;;;5081538;28;20219;-71
2023/08/25 01:18:12;;;;;;;10.25;7.63;;;20.40;99.90;;;;;;5081877;28;20711;-70
2023/08/25 01:21:04;;;;;;;8.98;7.40;;;20.30;99.90;;;;;;5072985;28;20226;-70
2023/08/25 01:24:02;;;;;;;9.57;7.35;;;20.40;99.90;;;;;;5081006;28;20775;-70
2023/08/25 01:26:53;;;;;;;9.27;7.88;;;20.40;99.90;;;;;;5076444;28;20222;-71
2023/08/25 01:29:44;;;;;;;13.80;7.50;;;20.40;99.90;;;;;;5077898;28;20233;-70
2023/08/25 01:32:37;;;;;;;10.75;7.25;;;20.40;99.90;;;;;;5089547;28;20228;-70
2023/08/25 01:35:34;;;;;;;10.52;7.63;;;20.40;99.90;;;;;;5083549;28;20264;-72
2023/08/25 01:38:29;;;;;;;11.43;7.72;;;20.50;99.90;;;;;;5075724;28;20981;-72
2023/08/25 01:41:24;;;;;;;9.57;7.07;;;20.50;99.90;;;;;;5092955;28;20519;-70
2023/08/25 01:44:17;;;;;;;9.88;7.68;;;20.50;99.90;;;;;;5090465;28;20233;-68
2023/08/25 01:47:09;;;;;;;11.40;7.40;;;20.50;99.90;;;;;;5063251;28;20631;-71
2023/08/25 01:49:58;;;;;;;9.20;7.30;;;20.50;99.90;;;;;;5096063;28;20361;-71
2023/08/25 01:52:48;;;;;;;12.15;7.30;;;20.60;99.90;;;;;;5080372;28;20602;-71
2023/08/25 01:55:37;;;;;;;8.93;7.32;;;20.50;99.90;;;;;;5071000;28;20511;-71
2023/08/25 01:58:29;;;;;;;12.57;7.32;;;20.60;99.90;;;;;;5081987;28;20704;-72
2023/08/25 02:01:20;;;;;;;9.27;7.30;;;20.60;99.90;;;;;;5064450;28;20223;-71
2023/08/25 02:04:09;;;;;;;9.90;7.78;;;20.50;99.90;;;;;;5071831;28;20212;-72
2023/08/25 02:06:57;;;;;;;10.68;8.68;;;20.50;99.90;;;;;;5074748;28;20215;-71
2023/08/25 02:09:46;;;;;;;14.32;9.05;;;20.50;99.90;;;;;;5086133;28;20258;-72
2023/08/25 02:12:35;;;;;;;15.60;9.45;;;20.40;99.90;;;;;;5067149;28;20219;-70
2023/08/25 02:15:24;;;;;;;10.50;8.63;;;20.30;99.90;;;;;;5074979;28;20227;-71
2023/08/25 02:18:14;;;;;;;10.95;9.40;;;20.20;99.90;;;;;;5076441;28;20796;-72
2023/08/25 02:21:04;;;;;;;14.32;8.63;;;20.20;99.90;;;;;;5075300;28;20239;-72
2023/08/25 02:23:53;;;;;;;13.15;8.48;;;20.20;99.90;;;;;;5075118;28;20894;-71
2023/08/25 02:26:42;;;;;;;15.93;8.57;;;20.30;99.90;;;;;;5074551;28;20235;-71
2023/08/25 02:29:31;;;;;;;12.07;8.80;;;20.20;99.90;;;;;;5075399;28;20252;-71
2023/08/25 02:32:20;;;;;;;13.57;9.18;;;20.20;99.90;;;;;;5072340;28;20219;-69
2023/08/25 02:35:10;;;;;;;10.85;9.00;;;20.20;99.90;;;;;;5077714;28;20230;-68
2023/08/25 02:38:01;;;;;;;13.05;8.80;;;20.10;99.90;;;;;;5064287;28;20224;-69
2023/08/25 02:40:50;;;;;;;10.70;8.63;;;20.10;99.90;;;;;;5077750;28;20218;-70
2023/08/25 02:43:39;;;;;;;12.38;8.93;;;20.10;99.90;;;;;;5075937;28;20223;-70
2023/08/25 02:46:28;;;;;;;13.95;9.05;;;20.00;99.90;;;;;;5079949;28;20223;-68
2023/08/25 02:49:17;;;;;;;11.75;9.32;;;20.20;99.90;;;;;;5093905;28;20243;-70
2023/08/25 02:52:08;;;;;;;10.80;8.93;;;20.10;99.90;;;;;;5083414;28;20226;-70
2023/08/25 02:54:56;;;;;;;13.10;9.75;;;20.00;99.90;;;;;;5075997;28;21587;-70
2023/08/25 02:57:45;;;;;;;15.48;9.63;;;20.00;99.90;;;;;;5081794;28;20342;-70
2023/08/25 03:00:34;;;;;;;12.98;10.13;;;20.00;99.90;;;;;;5081247;28;20219;-71
2023/08/25 03:03:23;;;;;;;17.70;10.73;;;19.90;1.00;;;;;;5095899;28;20218;-70
2023/08/25 03:06:13;;;;;;;13.13;10.55;;;20.00;1.00;;;;;;5075516;28;20257;-71
2023/08/25 03:09:05;;;;;;;12.20;10.23;;;19.90;1.00;;;;;;5072577;28;20257;-70
2023/08/25 03:11:55;;;;;;;14.18;10.38;;;20.00;1.00;;;;;;5057820;28;20219;-68
2023/08/25 03:14:44;;;;;;;15.73;9.95;;;20.10;1.00;;;;;;5075574;28;20223;-68
2023/08/25 03:17:34;;;;;;;14.68;10.35;;;20.10;1.00;;;;;;5081214;28;20244;-68
2023/08/25 03:20:23;;;;;;;13.82;10.40;;;20.10;1.00;;;;;;5077629;28;20226;-70
2023/08/25 03:23:12;;;;;;;13.27;10.68;;;20.00;1.00;;;;;;5081364;28;20245;-69
2023/08/25 03:26:05;;;;;;;13.98;10.45;;;20.10;1.00;;;;;;5081204;28;20317;-69
2023/08/25 03:28:53;;;;;;;13.77;10.65;;;19.90;1.00;;;;;;5103190;28;20223;-68
2023/08/25 03:31:43;;;;;;;16.75;11.35;;;19.90;1.00;;;;;;5098492;28;21486;-68
2023/08/25 03:34:32;;;;;;;14.65;11.02;;;19.80;1.00;;;;;;5073900;28;20251;-69
2023/08/25 03:37:21;;;;;;;11.85;10.63;;;19.80;1.00;;;;;;5058954;28;20327;-68
2023/08/25 03:40:11;;;;;;;15.88;10.65;;;19.80;1.00;;;;;;5075258;28;20239;-70
2023/08/25 03:43:02;;;;;;;15.52;11.15;;;19.80;1.00;;;;;;5078957;28;20279;-71
2023/08/25 03:45:51;;;;;;;17.52;11.00;;;19.70;1.00;;;;;;5077457;28;20940;-69
2023/08/25 03:48:40;;;;;;;17.83;11.05;;;19.60;1.00;;;;;;5098973;28;20235;-67
2023/08/25 03:51:28;;;;;;;14.73;10.93;;;19.60;1.00;;;;;;5084489;28;20226;-66
2023/08/25 03:54:18;;;;;;;13.20;11.82;;;19.70;1.00;;;;;;5081486;28;20227;-68
2023/08/25 03:57:08;;;;;;;17.80;11.27;;;19.80;1.00;;;;;;5074576;28;20211;-70
2023/08/25 03:59:58;;;;;;;14.88;11.55;;;19.90;1.00;;;;;;5088343;28;20223;-68
2023/08/25 04:02:47;;;;;;;18.42;12.90;;;19.90;1.00;;;;;;5087116;28;20233;-67
2023/08/25 04:05:36;;;;;;;16.23;12.82;;;19.80;1.00;;;;;;5067228;28;20219;-68
2023/08/25 04:08:26;;;;;;;17.38;12.73;;;19.60;1.00;;;;;;5071897;28;20380;-68
2023/08/25 04:11:16;;;;;;;14.85;12.75;;;19.80;1.00;;;;;;5075855;28;21591;-69
2023/08/25 04:14:05;;;;;;;15.48;12.48;;;19.90;1.00;;;;;;5093928;28;20265;-69
2023/08/25 04:16:58;;;;;;;18.50;13.50;;;19.90;1.00;;;;;;5080553;28;20712;-70
2023/08/25 04:19:47;;;;;;;15.75;13.25;;;19.90;1.00;;;;;;5076542;28;20491;-69
2023/08/25 04:22:37;;;;;;;19.73;14.73;;;19.90;1.00;;;;;;5083715;28;20356;-70
2023/08/25 04:25:28;;;;;;;22.65;13.98;;;19.80;1.00;;;;;;5079262;28;20223;-68
2023/08/25 04:28:20;;;;;;;18.85;14.48;;;19.80;1.00;;;;;;5072847;28;20307;-68
2023/08/25 04:31:09;;;;;;;19.17;14.35;;;19.90;1.00;;;;;;5077974;28;20222;-70
2023/08/25 04:34:01;;;;;;;18.92;15.02;;;20.00;1.00;;;;;;5070308;28;20223;-69
2023/08/25 04:36:50;;;;;;;18.33;14.60;;;19.90;1.00;;;;;;5080449;28;20228;-69
2023/08/25 04:39:40;;;;;;;19.90;13.73;;;19.90;1.00;;;;;;5076866;28;20223;-69
2023/08/25 04:42:30;;;;;;;20.15;13.00;;;19.80;1.00;;;;;;5076107;28;20368;-70
2023/08/25 04:45:19;;;;;;;17.95;13.00;;;19.80;86.40;;;;;;5086383;27;20219;-68
2023/08/25 04:48:08;;;;;;;18.77;12.88;;;19.70;99.90;;;;;;5084707;28;20249;-69
2023/08/25 04:51:00;;;;;;;16.48;13.30;;;19.80;99.90;;;;;;5079844;28;20360;-70
2023/08/25 04:53:49;;;;;;;16.85;12.18;;;19.60;99.90;;;;;;5082712;28;20215;-70
2023/08/25 04:56:39;;;;;;;18.00;13.05;;;19.70;99.90;;;;;;5093530;27;20252;-69
2023/08/25 04:59:28;;;;;;;17.75;13.60;;;19.80;99.90;;;;;;5090409;28;20393;-69
2023/08/25 05:02:17;;;;;;;18.60;13.70;;;19.80;99.90;;;;;;5075742;28;20738;-69
2023/08/25 05:05:09;;;;;;;17.17;13.23;;;19.60;99.90;;;;;;5091197;28;20280;-69
2023/08/25 05:07:59;;;;;;;18.08;14.13;;;19.70;1.00;;;;;;5071183;28;20368;-70
2023/08/25 05:10:48;;;;;;;20.20;13.32;;;19.80;99.90;;;;;;5069226;28;20223;-69
2023/08/25 05:13:37;;;;;;;22.75;14.38;;;19.90;99.90;;;;;;5070767;28;20216;-68
2023/08/25 05:16:29;;;;;;;20.38;14.68;;;19.90;99.90;;;;;;5059758;28;20235;-69
2023/08/25 05:19:23;;;;;;;17.13;13.90;;;19.80;99.90;;;;;;5075466;28;20211;-69
2023/08/25 05:22:14;;;;;;;17.10;14.50;;;19.70;99.90;;;;;;5093689;28;20272;-68
2023/08/25 05:25:06;;;;;;;22.55;13.70;;;19.80;99.90;;;;;;5089164;28;20216;-70
2023/08/25 05:27:57;;;;;;;18.98;13.45;;;19.90;99.90;;;;;;5079594;28;20275;-71
2023/08/25 05:30:48;;;;;;;18.42;13.82;;;20.00;99.90;;;;;;5081114;28;20246;-71
2023/08/25 05:33:39;;;;;;;18.48;12.88;;;20.00;99.90;;;;;;5077668;28;20636;-70
2023/08/25 05:36:48;;;;;;;20.70;13.25;;;20.20;99.90;;;;;;5073092;28;20246;-70
2023/08/25 05:39:37;;;;;;;15.18;12.57;;;20.20;1.00;;;;;;5077568;28;20229;-69
2023/08/25 05:42:31;;;;;;;16.80;12.90;;;20.40;19.80;;;;;;5067306;28;20235;-70
2023/08/25 05:45:20;;;;;;;17.80;12.57;;;20.50;1.00;;;;;;5074163;28;20253;-68
2023/08/25 05:48:10;;;;;;;16.33;12.32;;;20.60;1.00;;;;;;5093040;28;20223;-70
2023/08/25 05:50:59;;;;;;;17.17;11.82;;;20.50;1.00;;;;;;5079657;28;20216;-71
2023/08/25 05:53:48;;;;;;;16.80;12.85;;;20.60;1.00;;;;;;5079089;28;20235;-70
2023/08/25 05:56:37;;;;;;;15.05;11.32;;;20.60;1.00;;;;;;5093411;28;20234;-70
2023/08/25 05:59:32;;;;;;;15.73;12.27;;;20.60;1.00;;;;;;5088272;28;20321;-70
2023/08/25 06:02:21;;;;;;;14.07;11.07;;;20.70;1.00;;;;;;5081968;28;20737;-69
2023/08/25 06:05:10;;;;;;;24.45;11.93;;;20.80;1.00;;;;;;5093991;28;20634;-69
2023/08/25 06:07:58;;;;;;;15.52;12.00;;;20.60;1.00;;;;;;5083147;28;20253;-71
2023/08/25 06:10:47;;;;;;;17.30;12.00;;;20.60;1.00;;;;;;5093235;28;20604;-69
2023/08/25 06:13:36;;;;;;;21.92;11.23;;;20.80;1.00;;;;;;5082112;28;20231;-67
2023/08/25 06:16:29;;;;;;;17.33;10.70;;;20.80;1.00;;;;;;5101100;28;20352;-69
2023/08/25 06:19:18;;;;;;;16.25;11.05;;;20.70;1.00;;;;;;5097846;28;20222;-72
2023/08/25 06:22:10;;;;;;;13.65;11.45;;;20.80;1.00;;;;;;5095212;28;21107;-70
2023/08/25 06:24:59;;;;;;;14.68;11.35;;;20.80;1.00;;;;;;5075510;28;20219;-72
2023/08/25 06:27:48;;;;;;;15.98;11.52;;;20.90;1.00;;;;;;5095165;28;20893;-71
2023/08/25 06:30:37;;;;;;;13.73;11.30;;;20.90;1.00;;;;;;5079517;28;20227;-71
2023/08/25 06:33:31;;;;;;;17.27;11.13;;;20.80;1.00;;;;;;5075399;28;20215;-72
2023/08/25 06:36:20;;;;;;;17.80;11.10;;;20.90;1.00;;;;;;5078484;28;20223;-72
2023/08/25 06:39:09;;;;;;;13.60;10.70;;;21.00;1.00;;;;;;5094117;28;20242;-73
2023/08/25 06:41:57;;;;;;;13.77;11.02;;;21.10;1.00;;;;;;5093100;28;20215;-73
2023/08/25 06:44:46;;;;;;;13.65;11.45;;;21.20;1.00;;;;;;5086984;28;20219;-73
2023/08/25 06:47:36;;;;;;;17.83;10.60;;;21.40;99.90;;;;;;5087008;28;20602;-71
2023/08/25 06:50:27;;;;;;;15.02;10.43;;;21.50;99.90;;;;;;5100122;28;20238;-71
2023/08/25 06:53:17;;;;;;;14.60;10.93;;;21.50;99.90;;;;;;5094693;28;20230;-71
2023/08/25 06:56:06;;;;;;;16.67;10.77;;;21.70;99.90;;;;;;5098141;28;20226;-72
2023/08/25 06:58:55;;;;;;;13.00;10.80;;;21.80;99.90;;;;;;5083450;28;20703;-72
2023/08/25 07:01:44;;;;;;;17.50;11.32;;;21.80;99.90;;;;;;5096989;28;20222;-72
2023/08/25 07:04:33;;;;;;;15.30;10.75;;;21.70;99.90;;;;;;5080075;28;20227;-72
2023/08/25 07:07:31;;;;;;;15.80;10.52;;;21.60;99.90;;;;;;5086260;28;20713;-72
2023/08/25 07:10:20;;;;;;;14.20;10.40;;;21.70;99.90;;;;;;5080192;28;20229;-71
2023/08/25 07:13:09;;;;;;;14.45;10.40;;;21.80;99.90;;;;;;5087481;28;20222;-71
2023/08/25 07:15:57;;;;;;;16.58;10.90;;;21.80;99.90;;;;;;5102208;28;20222;-72
2023/08/25 07:18:47;;;;;;;15.73;10.73;;;22.00;99.90;;;;;;5096586;28;20250;-72
2023/08/25 07:21:35;;;;;;;16.77;11.05;;;22.00;99.90;;;;;;5082245;28;20730;-72
2023/08/25 07:24:26;;;;;;;17.52;10.20;;;22.10;99.90;;;;;;5083664;28;20661;-72
2023/08/25 07:27:15;;;;;;;14.77;10.75;;;22.10;99.90;;;;;;5087107;28;20235;-70
2023/08/25 07:30:05;;;;;;;19.73;11.13;;;22.00;99.90;;;;;;5068487;28;20723;-73
2023/08/25 07:32:54;;;;;;;15.25;10.88;;;22.10;99.90;;;;;;5096823;27;20295;-72
2023/08/25 07:35:43;;;;;;;17.70;11.00;;;22.10;99.90;;;;;;5074246;28;20241;-72
2023/08/25 07:38:32;;;;;;;14.93;10.65;;;22.10;99.90;;;;;;5062563;28;20220;-74
2023/08/25 07:41:22;;;;;;;18.33;10.63;;;22.30;99.90;;;;;;5069666;28;20270;-71
2023/08/25 07:44:11;;;;;;;17.75;10.35;;;22.30;99.90;;;;;;5076994;28;20231;-71
2023/08/25 07:47:00;;;;;;;20.58;11.82;;;22.20;99.90;;;;;;5071118;28;20215;-73
2023/08/25 07:49:49;;;;;;;20.50;11.90;;;22.10;99.90;;;;;;5073343;28;20231;-71
2023/08/25 07:52:38;;;;;;;12.00;10.48;;;22.10;99.90;;;;;;5068078;28;20219;-70
2023/08/25 07:55:28;;;;;;;15.82;11.00;;;22.20;99.90;;;;;;5067881;28;20220;-70
2023/08/25 07:58:19;;;;;;;17.90;11.05;;;22.40;99.90;;;;;;5061996;28;20919;-68
2023/08/25 08:01:10;;;;;;;20.65;11.07;;;22.50;99.90;;;;;;5072898;28;20226;-68
2023/08/25 08:03:59;;;;;;;14.80;11.07;;;22.50;99.90;;;;;;5070674;28;20242;-70
2023/08/25 08:06:49;;;;;;;19.58;10.98;;;22.50;99.90;;;;;;5079244;28;20234;-71
2023/08/25 08:09:39;;;;;;;17.70;11.20;;;22.60;99.90;;;;;;5060125;28;20321;-70
2023/08/25 08:12:28;;;;;;;17.50;11.45;;;22.70;99.90;;;;;;5068202;28;20247;-70
2023/08/25 08:15:18;;;;;;;22.73;11.07;;;22.60;99.90;;;;;;5057301;28;20342;-70
2023/08/25 08:18:07;;;;;;;17.88;11.45;;;22.50;99.90;;;;;;5070140;28;20310;-70
2023/08/25 08:20:56;;;;;;;19.23;11.02;;;22.70;99.90;;;;;;5055065;28;20359;-70
2023/08/25 08:23:45;;;;;;;16.13;10.88;;;23.00;99.90;;;;;;5068373;28;20698;-70
2023/08/25 08:26:36;;;;;;;12.38;10.57;;;23.20;99.90;;;;;;5074207;28;20224;-70
2023/08/25 08:29:26;;;;;;;13.73;10.70;;;23.40;99.90;;;;;;5064928;28;20270;-70
2023/08/25 08:32:16;;;;;;;15.55;10.63;;;23.40;99.90;;;;;;5068633;28;20318;-71
2023/08/25 08:35:07;;;;;;;17.63;10.98;;;23.40;99.90;;;;;;5072857;28;20306;-71
2023/08/25 08:37:56;;;;;;;13.50;10.98;;;23.20;99.90;;;;;;5073713;28;20276;-72
2023/08/25 08:40:45;;;;;;;16.77;10.45;;;23.20;99.90;;;;;;5075603;28;20234;-69
2023/08/25 08:43:38;;;;;;;15.80;10.60;;;23.10;99.90;;;;;;5064951;28;20236;-69
2023/08/25 08:46:35;;;;;;;15.30;10.30;;;23.20;99.90;;;;;;5065801;28;20224;-68
2023/08/25 08:49:26;;;;;;;15.23;10.43;;;23.20;99.90;;;;;;5084154;28;20235;-68
2023/08/25 08:52:17;;;;;;;18.45;10.48;;;23.30;99.90;;;;;;5076587;28;20220;-71
2023/08/25 08:55:07;;;;;;;18.17;10.57;;;23.30;99.90;;;;;;5049570;28;20228;-70
2023/08/25 08:57:56;;;;;;;14.57;10.18;;;23.30;99.90;;;;;;5070476;28;20688;-71
2023/08/25 09:00:45;;;;;;;16.88;10.50;;;23.40;99.90;;;;;;5078388;28;20255;-69
2023/08/25 09:03:35;;;;;;;13.63;9.88;;;23.50;99.90;;;;;;5072437;28;20239;-71
2023/08/25 09:06:27;;;;;;;14.52;9.60;;;23.60;99.90;;;;;;5076370;28;20251;-68
2023/08/25 09:09:19;;;;;;;12.13;9.63;;;23.60;99.90;;;;;;5070088;28;20220;-69
2023/08/25 09:12:08;;;;;;;11.57;9.68;;;23.60;99.90;;;;;;5075497;28;20219;-71
2023/08/25 09:14:57;;;;;;;11.82;9.50;;;23.70;99.90;;;;;;5073172;28;20224;-69
2023/08/25 09:17:48;;;;;;;12.07;9.50;;;23.60;99.90;;;;;;5073792;28;20236;-70
2023/08/25 09:20:39;;;;;;;14.57;9.23;;;23.60;99.90;;;;;;5065771;28;20231;-71
2023/08/25 09:23:29;;;;;;;15.48;9.77;;;23.50;99.90;;;;;;5069563;28;20757;-73
2023/08/25 09:26:18;;;;;;;16.17;10.88;;;23.60;99.90;;;;;;5067043;28;20222;-70
2023/08/25 09:29:07;;;;;;;12.68;9.52;;;23.60;99.90;;;;;;5071981;28;20291;-71
2023/08/25 09:31:56;;;;;;;11.77;9.82;;;23.70;99.90;;;;;;5078269;28;20287;-70
2023/08/25 09:34:45;;;;;;;15.00;9.23;;;23.50;99.90;;;;;;5083394;28;20274;-72
2023/08/25 09:37:40;;;;;;;18.83;9.77;;;23.60;99.90;;;;;;5077307;28;20231;-72
2023/08/25 09:40:31;;;;;;;15.93;9.23;;;23.60;99.90;;;;;;5095239;28;20218;-71
2023/08/25 09:43:29;;;;;;;15.40;9.77;;;23.50;99.90;;;;;;5094025;28;20215;-71
2023/08/25 09:46:17;;;;;;;11.18;9.25;;;23.40;99.90;;;;;;5080759;28;21094;-71
2023/08/25 09:49:08;;;;;;;12.93;10.05;;;23.50;99.90;;;;;;5078747;28;20226;-72
2023/08/25 09:51:58;;;;;;;13.50;9.32;;;23.60;99.90;;;;;;5096689;28;20234;-71
2023/08/25 09:54:47;;;;;;;12.23;8.95;;;23.60;99.90;;;;;;5093731;28;20238;-68
2023/08/25 09:57:38;;;;;;;14.10;9.80;;;23.60;99.90;;;;;;5087863;28;20231;-70
2023/08/25 10:00:28;;;;;;;13.60;9.43;;;23.50;99.90;;;;;;5077466;28;20305;-72
2023/08/25 10:03:18;;;;;;;10.40;8.93;;;23.50;99.90;;;;;;5076653;28;20216;-72
2023/08/25 10:06:08;;;;;;;13.88;9.00;;;23.50;99.90;;;;;;5080314;28;20700;-71
2023/08/25 10:08:58;;;;;;;13.02;8.57;;;23.40;99.90;;;;;;5085468;28;20709;-73
2023/08/25 10:11:49;;;;;;;14.63;8.68;;;23.40;99.90;;;;;;5071806;28;20207;-70
2023/08/25 10:14:43;;;;;;;16.05;9.35;;;23.40;99.90;;;;;;5084304;28;20215;-71
2023/08/25 10:17:34;;;;;;;13.43;7.82;;;23.40;99.90;;;;;;5069925;28;20404;-70
2023/08/25 10:20:24;;;;;;;13.10;8.38;;;23.40;99.90;;;;;;5078980;28;20237;-73
2023/08/25 10:23:14;;;;;;;14.30;8.10;;;23.50;99.90;;;;;;5067268;28;20326;-71
2023/08/25 10:26:05;;;;;;;8.63;7.20;;;23.50;99.90;;;;;;5073560;28;20276;-70
2023/08/25 10:28:56;;;;;;;16.00;8.00;;;23.50;99.90;;;;;;5073326;28;20261;-71
2023/08/25 10:31:51;;;;;;;12.15;7.85;;;23.50;99.90;;;;;;5067379;28;20227;-70
2023/08/25 10:34:45;;;;;;;17.95;8.00;;;23.50;99.90;;;;;;5085913;28;20224;-70
2023/08/25 10:37:37;;;;;;;11.85;8.63;;;23.50;99.90;;;;;;5077546;28;20230;-70
2023/08/25 10:40:40;;;;;;;10.55;8.07;;;23.60;99.90;;;;;;5091166;28;20214;-72
2023/08/25 10:43:33;;;;;;;10.95;8.07;;;23.60;99.90;;;;;;5074614;28;20218;-70
2023/08/25 10:46:24;;;;;;;9.30;7.75;;;23.70;99.90;;;;;;5073295;28;20329;-71
2023/08/25 10:49:40;;;;;;;16.08;8.10;;;23.70;99.90;;;;;;5086417;28;20230;-70
2023/08/25 10:52:29;;;;;;;12.13;8.20;;;23.70;99.90;;;;;;5067927;28;20693;-71
2023/08/25 10:55:26;;;;;;;14.90;8.00;;;23.70;99.90;;;;;;5066879;28;20666;-70
2023/08/25 10:58:19;;;;;;;14.45;7.95;;;23.40;99.90;;;;;;5086113;28;20237;-71
2023/08/25 11:01:10;;;;;;;15.00;8.50;;;23.30;99.90;;;;;;5086754;28;20219;-70
2023/08/25 11:04:07;;;;;;;11.07;7.50;;;23.40;99.90;;;;;;5076240;28;20231;-71
2023/08/25 11:06:59;;;;;;;11.57;7.93;;;23.50;99.90;;;;;;5067756;28;20408;-71
2023/08/25 11:09:58;;;;;;;16.38;7.85;;;23.50;99.90;;;;;;5081361;28;20642;-70
2023/08/25 11:12:48;;;;;;;10.57;7.97;;;23.50;99.90;;;;;;5053934;28;20810;-69
2023/08/25 11:15:56;;;;;;;14.52;7.93;;;23.50;99.90;;;;;;5074677;28;20219;-71
2023/08/25 11:18:45;;;;;;;13.18;8.05;;;23.40;99.90;;;;;;5073207;28;20227;-70
2023/08/25 11:21:34;;;;;;;10.48;8.13;;;23.50;99.90;;;;;;5093865;28;20322;-70
2023/08/25 11:24:25;;;;;;;16.08;7.68;;;23.40;99.90;;;;;;5092349;28;20728;-67
2023/08/25 11:27:16;;;;;;;12.68;8.25;;;23.40;99.90;;;;;;5076999;28;20234;-69
2023/08/25 11:30:09;;;;;;;23.88;9.50;;;23.20;99.90;;;;;;5077788;28;20239;-68
2023/08/25 11:32:58;;;;;;;18.63;9.20;;;22.90;1.00;;;;;;5070705;28;20242;-68
2023/08/25 11:35:47;;;;;;;21.05;11.05;;;22.50;1.00;;;;;;5078174;28;20620;-67
2023/08/25 11:38:36;;;;;;;14.57;9.48;;;22.30;1.00;;;;;;5078298;28;20224;-68
2023/08/25 11:41:30;;;;;;;14.85;10.02;;;22.00;23.50;;;;;;5081747;28;20221;-68
2023/08/25 11:44:19;;;;;;;13.48;9.55;;;21.90;99.90;;;;;;5082852;28;20219;-69
2023/08/25 11:47:09;;;;;;;11.32;9.00;;;21.80;99.90;;;;;;5081855;28;20300;-69
2023/08/25 11:49:58;;;;;;;10.52;8.93;;;22.00;99.90;;;;;;5095483;28;20235;-70
2023/08/25 11:52:47;;;;;;;12.75;8.80;;;22.10;86.90;;;;;;5078448;28;20279;-69
2023/08/25 11:55:36;;;;;;;12.07;8.30;;;22.10;99.90;;;;;;5097539;28;20618;-70
2023/08/25 11:58:31;;;;;;;11.32;8.98;;;22.00;99.90;;;;;;5069494;28;20237;-70
2023/08/25 12:01:20;;;;;;;10.27;8.90;;;22.00;1.00;;;;;;5078431;28;20238;-71
2023/08/25 12:04:21;;;;;;;12.00;9.43;;;22.20;1.00;;;;;;5075736;28;21951;-71
2023/08/25 12:07:10;;;;;;;16.02;9.48;;;22.30;99.90;;;;;;5076604;28;20320;-70
2023/08/25 12:09:59;;;;;;;12.43;9.18;;;22.40;99.90;;;;;;5095367;28;20458;-71
2023/08/25 12:12:48;;;;;;;13.88;9.38;;;22.50;99.90;;;;;;5077978;28;20219;-69
2023/08/25 12:15:45;;;;;;;13.05;8.95;;;22.50;1.00;;;;;;5092366;28;20329;-68
2023/08/25 12:18:35;;;;;;;12.20;8.80;;;22.50;1.00;;;;;;5078703;28;20298;-70
2023/08/25 12:21:24;;;;;;;10.52;9.13;;;22.60;1.00;;;;;;5074906;28;20655;-69
2023/08/25 12:24:13;;;;;;;14.60;9.95;;;22.70;1.00;;;;;;5094314;28;20273;-70
2023/08/25 12:27:02;;;;;;;14.52;9.57;;;22.60;99.90;;;;;;5075690;28;20219;-71
2023/08/25 12:29:51;;;;;;;15.27;9.90;;;22.80;1.00;;;;;;5076681;28;20606;-72
2023/08/25 12:32:41;;;;;;;11.98;9.30;;;22.80;99.90;;;;;;5086966;28;20223;-69
2023/08/25 12:35:31;;;;;;;14.07;9.38;;;23.00;1.00;;;;;;5094882;28;20222;-70
2023/08/25 12:38:20;;;;;;;13.63;9.68;;;23.20;1.00;;;;;;5091145;28;20284;-69
2023/08/25 12:41:09;;;;;;;11.63;8.95;;;23.30;1.00;;;;;;5075765;28;20403;-69
2023/08/25 12:43:58;;;;;;;12.60;9.30;;;23.20;99.90;;;;;;5096210;28;20321;-71
2023/08/25 12:46:47;;;;;;;11.23;8.93;;;23.30;99.90;;;;;;5085995;28;20796;-70
2023/08/25 12:49:38;;;;;;;9.93;8.48;;;23.20;99.90;;;;;;5095402;28;20223;-70
2023/08/25 12:52:33;;;;;;;15.48;8.75;;;23.10;1.00;;;;;;5078821;28;20215;-71
2023/08/25 12:55:22;;;;;;;12.15;9.32;;;23.10;1.00;;;;;;5083440;28;20222;-71
2023/08/25 12:58:11;;;;;;;14.52;8.52;;;23.10;99.90;;;;;;5099844;28;20789;-71
2023/08/25 13:01:03;;;;;;;13.93;9.23;;;23.00;31.70;;;;;;5080235;28;20245;-71
2023/08/25 13:03:52;;;;;;;13.75;8.93;;;23.00;99.90;;;;;;5075075;28;20591;-71
2023/08/25 13:06:42;;;;;;;12.50;9.20;;;23.30;99.90;;;;;;5089765;28;20226;-70
2023/08/25 13:09:31;;;;;;;10.40;8.50;;;23.40;33.90;;;;;;5078752;28;20227;-70
2023/08/25 13:12:21;;;;;;;13.00;8.65;;;23.50;1.00;;;;;;5082144;28;20219;-69
2023/08/25 13:15:11;;;;;;;9.63;7.90;;;23.40;1.00;;;;;;5078714;28;20216;-71
2023/08/25 13:18:00;;;;;;;10.98;7.50;;;23.50;1.00;;;;;;5077306;28;20231;-71
2023/08/25 13:20:49;;;;;;;11.15;8.93;;;23.60;1.00;;;;;;5082164;28;20304;-70
2023/08/25 13:23:40;;;;;;;10.07;7.72;;;23.80;1.00;;;;;;5080569;28;20216;-70
2023/08/25 13:26:45;;;;;;;8.80;7.85;;;24.00;1.00;;;;;;5093362;28;20584;-71
2023/08/25 13:29:34;;;;;;;10.40;7.30;;;24.00;1.00;;;;;;5078425;28;20259;-70
2023/08/25 13:32:23;;;;;;;12.20;7.82;;;23.80;99.90;;;;;;5091407;28;20705;-70
2023/08/25 13:35:13;;;;;;;9.88;8.00;;;23.80;1.00;;;;;;5094866;28;20227;-70
2023/08/25 13:38:02;;;;;;;11.43;8.20;;;23.70;1.00;;;;;;5079123;28;20308;-71
2023/08/25 13:40:52;;;;;;;11.30;7.78;;;23.80;1.00;;;;;;5080796;28;20223;-73
2023/08/25 13:43:41;;;;;;;11.60;7.60;;;23.60;99.90;;;;;;5099030;28;20227;-71
2023/08/25 13:46:30;;;;;;;9.60;6.90;;;23.60;1.00;;;;;;5095394;28;20242;-70
2023/08/25 13:49:19;;;;;;;11.27;7.20;;;23.60;1.00;;;;;;5078990;28;20377;-70
2023/08/25 13:52:08;;;;;;;11.13;7.05;;;23.50;1.00;;;;;;5075176;28;20227;-71
2023/08/25 13:54:57;;;;;;;11.88;7.30;;;23.50;1.00;;;;;;5075730;28;20246;-70
2023/08/25 13:57:48;;;;;;;8.77;6.95;;;23.40;1.00;;;;;;5079519;28;20313;-70
2023/08/25 14:00:38;;;;;;;12.80;6.70;;;23.50;1.00;;;;;;5097090;28;20230;-71
2023/08/25 14:03:27;;;;;;;8.60;6.78;;;23.60;1.00;;;;;;5097103;28;20237;-71
2023/08/25 14:06:17;;;;;;;10.48;6.82;;;23.70;1.00;;;;;;5078012;28;20226;-71
2023/08/25 14:09:06;;;;;;;8.52;7.32;;;23.80;99.90;;;;;;5096531;28;20801;-68
2023/08/25 14:11:55;;;;;;;9.43;7.13;;;23.90;1.00;;;;;;5086693;28;20226;-71
2023/08/25 14:14:45;;;;;;;8.48;7.20;;;24.10;1.00;;;;;;5079126;28;20218;-70
2023/08/25 14:17:34;;;;;;;10.07;7.28;;;24.10;99.90;;;;;;5078292;28;20233;-70
2023/08/25 14:20:24;;;;;;;9.98;7.28;;;24.10;99.90;;;;;;5099672;28;20222;-72
2023/08/25 14:23:15;;;;;;;11.13;7.32;;;24.00;1.00;;;;;;5083799;28;20227;-69
2023/08/25 14:26:04;;;;;;;10.13;7.30;;;24.00;1.00;;;;;;5081361;28;20314;-74
2023/08/25 14:28:54;;;;;;;14.10;7.95;;;23.90;1.00;;;;;;5084057;28;20315;-71
2023/08/25 14:31:44;;;;;;;11.30;8.07;;;24.00;1.00;;;;;;5093968;28;20605;-70
2023/08/25 14:34:34;;;;;;;16.15;8.95;;;23.90;1.00;;;;;;5095310;28;20238;-69
2023/08/25 14:37:23;;;;;;;12.95;8.80;;;23.80;1.00;;;;;;5079250;28;20241;-70